Latest Coastal Weather Observations for Port Lincoln Airport

IDS60701

Issued at 3:02 am CDT Monday 2 February 2015 (issued every 10 minutes, with the page automatically refreshed every 10 minutes)

About coastal observations | Map of coastal stations | Coastal observations for SA | Marine services | Other Formats
Station Details ID: 018192 Name: PORT LINCOLN AWS Lat: -34.60 Lon: 135.88 Height: 8.5 m
Data from the previous 72 hours. | See also: Recent months at Port Lincoln Airport
Date/Time
CDT
Temp

°C
Wind Pressure Rain
since 9am
mm
Weather Cloud Vis
km
Sea
Height
m
Swell
Dir
 
Speed
knots
Gust
knots
hPa Trend Height
m
Period
s
Dir
02/03:00am 16.5 SSE 16 22 1021.6 - 0.0 - Cloudy 10 - - - -
02/02:30am 16.5 SSE 18 24 1021.8 - 0.0 - Cloudy 10 - - - -
02/02:00am 16.5 SSE 17 22 1021.8 - 0.0 - Cloudy 10 - - - -
02/01:30am 16.6 SE 19 25 1021.9 - 0.0 - Cloudy 10 - - - -
02/01:00am 16.4 SSE 19 23 1021.9 - 0.0 - Cloudy 10 - - - -
02/12:30am 16.6 SE 19 25 1022.1 - 0.0 - Partly cloudy 10 - - - -
02/12:00am 16.2 SSE 18 24 1022.3 - 0.0 - Mostly cloudy 10 - - - -
 
Date/Time
CDT
Temp

°C
Wind Pressure Rain
since 9am
mm
Weather Cloud Vis
km
Sea
Height
m
Swell
Dir
 
Speed
knots
Gust
knots
hPa Trend Height
m
Period
s
Dir
01/11:30pm 16.5 SSE 18 23 1022.2 - 0.0 - Partly cloudy 10 - - - -
01/11:00pm 16.4 SSE 19 24 1022.1 - 0.0 - Partly cloudy 10 - - - -
01/10:30pm 16.5 SSE 19 23 1022.0 - 0.0 - Partly cloudy 10 - - - -
01/10:00pm 16.5 SSE 17 21 1021.9 - 0.0 - Partly cloudy 10 - - - -
01/09:30pm 16.2 SSE 19 23 1021.8 - 0.0 - Partly cloudy 10 - - - -
01/09:00pm 16.2 SSE 18 23 1021.7 - 0.0 - Mostly clear 10 - - - -
01/08:30pm 16.5 SSE 19 23 1021.3 - 0.0 - - 10 - - - -
01/08:00pm 16.8 SSE 17 21 1021.1 - 0.0 - Partly cloudy 10 - - - -
01/07:30pm 17.3 SSE 18 25 1020.9 - 0.0 - Cloudy 10 - - - -
01/07:00pm 17.6 SSE 18 23 1020.9 - 0.0 - Partly cloudy 10 - - - -
01/06:30pm 19.4 S 19 24 1020.8 - 0.0 - Partly cloudy 10 - - - -
01/06:00pm 17.7 S 17 22 1020.9 - 0.0 - Cloudy 10 - - - -
01/05:30pm 18.0 S 19 23 1020.6 - 0.0 - Cloudy 10 - - - -
01/05:00pm 18.4 S 18 23 1020.6 - 0.0 - Partly cloudy 10 - - - -
01/04:30pm 20.3 S 19 23 1020.5 - 0.0 - Partly cloudy 10 - - - -
01/04:00pm 20.8 S 20 25 1020.5 - 0.0 - Cloudy 10 - - - -
01/03:30pm 20.5 S 19 24 1020.5 - 0.0 - Partly cloudy 10 - - - -
01/03:00pm 21.3 S 16 21 1020.5 - 0.0 - Partly cloudy 10 - - - -
01/02:30pm 19.9 SSE 13 18 1020.7 - 0.0 - Cloudy 10 - - - -
01/02:00pm 19.1 SSE 14 17 1020.8 - 0.0 - Partly cloudy 10 - - - -
01/01:30pm 18.6 SSE 18 21 1020.9 - 0.0 - Partly cloudy 10 - - - -
01/01:00pm 18.6 SSE 14 20 1021.0 - 0.0 - Partly cloudy 10 - - - -
01/12:30pm 18.3 SSE 16 20 1021.2 - 0.0 - Partly cloudy 10 - - - -
01/12:00pm 18.5 SSE 16 20 1021.1 - 0.0 - Cloudy 10 - - - -
01/11:30am 18.2 SSE 16 20 1021.1 - 0.0 - Partly cloudy 10 - - - -
01/11:00am 17.7 SSE 15 19 1021.1 - 0.0 - Cloudy 10 - - - -
01/10:30am 17.2 SSE 15 19 1021.1 - 0.0 - Cloudy 10 - - - -
01/10:00am 17.2 SSE 15 19 1020.8 - 0.0 - Cloudy 10 - - - -
01/09:30am 16.8 SSE 14 18 1020.5 - 0.0 - Cloudy 10 - - - -
01/09:00am 16.6 SSE 17 21 1020.3 - 0.0 - Cloudy 10 - - - -
01/08:30am 16.5 SSE 17 22 1019.8 - 0.0 - Cloudy 10 - - - -
01/08:00am 15.7 SSE 17 22 1019.5 - 0.0 - Partly cloudy 10 - - - -
01/07:30am 15.6 SSE 13 16 1019.1 - 0.0 - Partly cloudy 10 - - - -
01/07:21am 15.3 SSE 17 23 1019.0 - 0.0 - Partly cloudy 10 - - - -
01/07:05am 15.2 SSE 17 22 1018.8 - 0.0 - Partly cloudy 5 - - - -
01/07:00am 16.0 SSE 14 22 1018.7 - 0.0 - Partly cloudy 10 - - - -
01/06:30am 16.6 SSE 16 21 1018.4 - 0.0 - Partly cloudy 10 - - - -
01/06:00am 16.8 SSE 16 23 1018.1 - 0.0 - Cloudy 10 - - - -
01/05:30am 16.9 SE 18 22 1017.9 - 0.0 - Partly cloudy 10 - - - -
01/05:00am 16.7 SSE 18 22 1017.8 - 0.0 - Partly cloudy 10 - - - -
01/04:30am 16.5 SSE 16 20 1017.8 - 0.0 - Cloudy 10 - - - -
01/04:00am 16.6 SSE 19 24 1017.9 - 0.0 - Cloudy 10 - - - -
01/03:30am 17.2 SE 19 22 1018.1 - 0.0 - Cloudy 10 - - - -
01/03:00am 17.2 SSE 18 24 1018.1 - 0.0 - Cloudy 10 - - - -
01/02:30am 17.4 SSE 17 21 1018.2 - 0.0 - Cloudy 10 - - - -
01/02:00am 17.3 SSE 18 22 1018.3 - 0.0 - Cloudy 10 - - - -
01/01:30am 17.4 SSE 17 20 1018.6 - 0.0 - Cloudy 10 - - - -
01/01:00am 17.4 SSE 17 20 1018.8 - 0.0 - Cloudy 10 - - - -
01/12:30am 17.4 SSE 18 24 1018.9 - 0.0 - Cloudy 10 - - - -
01/12:00am 17.6 SE 16 22 1018.8 - 0.0 - Mostly cloudy 10 - - - -
 
Date/Time
CDT
Temp

°C
Wind Pressure Rain
since 9am
mm
Weather Cloud Vis
km
Sea
Height
m
Swell
Dir
 
Speed
knots
Gust
knots
hPa Trend Height
m
Period
s
Dir
31/11:30pm 17.8 SSE 17 20 1018.9 - 0.0 - Partly cloudy 10 - - - -
31/11:00pm 17.6 SSE 17 22 1018.8 - 0.0 - Partly cloudy 10 - - - -
31/10:30pm 17.3 SSE 18 23 1019.0 - 0.0 - Partly cloudy 10 - - - -
31/10:00pm 17.2 SSE 17 23 1018.7 - 0.0 - - 10 - - - -
31/09:30pm 17.3 SSE 18 22 1018.3 - 0.0 - Partly cloudy 10 - - - -
31/09:00pm 17.5 SSE 18 22 1018.0 - 0.0 - Mostly clear 10 - - - -
31/08:30pm 17.6 SSE 18 21 1017.6 - 0.0 - - 10 - - - -
31/08:00pm 17.9 SSE 19 22 1017.4 - 0.0 - - 10 - - - -
31/07:30pm 19.3 SSE 19 24 1017.1 - 0.0 - Partly cloudy 10 - - - -
31/07:00pm 19.5 SSE 18 22 1017.0 - 0.0 - Partly cloudy 10 - - - -
31/06:30pm 21.2 SSE 18 24 1016.7 - 0.0 - Partly cloudy 10 - - - -
31/06:00pm 20.8 SSE 17 21 1016.8 - 0.0 - Partly cloudy 10 - - - -
31/05:30pm 21.1 SSE 17 21 1017.0 - 0.0 - - 10 - - - -
31/05:00pm 21.3 SE 17 22 1016.9 - 0.0 - Partly cloudy 10 - - - -
31/04:30pm 21.0 SE 17 20 1017.1 - 0.0 - Partly cloudy 10 - - - -
31/04:00pm 20.6 SE 16 20 1017.2 - 0.0 - Partly cloudy 10 - - - -
31/03:30pm 20.8 SSE 17 20 1017.2 - 0.0 - Partly cloudy 10 - - - -
31/03:00pm 21.5 SE 17 20 1017.2 - 0.0 - Mostly cloudy 10 - - - -
31/02:30pm 21.9 SE 15 19 1017.3 - 0.0 - - 10 - - - -
31/02:00pm 21.1 SE 15 19 1017.4 - 0.0 - Partly cloudy 10 - - - -
31/01:30pm 21.4 SE 17 21 1017.4 - 0.0 - Partly cloudy 10 - - - -
31/01:00pm 21.6 SE 15 19 1017.5 - 0.0 - Partly cloudy 10 - - - -
31/12:30pm 21.5 SE 16 21 1017.5 - 0.0 - Partly cloudy 10 - - - -
31/12:00pm 20.7 ESE 17 23 1017.5 - 0.0 - Partly cloudy 10 - - - -
31/11:30am 22.0 SE 18 23 1017.6 - 0.0 - Partly cloudy 10 - - - -
31/11:00am 20.6 ESE 19 24 1017.5 - 0.0 - Partly cloudy 10 - - - -
31/10:30am 19.7 ESE 18 23 1017.6 - 0.0 - Partly cloudy 10 - - - -
31/10:00am 20.6 SE 18 24 1017.4 - 0.0 - Partly cloudy 10 - - - -
31/09:30am 19.7 ESE 20 26 1017.4 - 0.0 - Partly cloudy 10 - - - -
31/09:00am 19.3 ESE 19 24 1017.3 - 0.0 - - 10 - - - -
31/08:30am 19.1 SE 19 24 1017.2 - 0.0 - Partly cloudy 10 - - - -
31/08:00am 17.8 ESE 18 21 1017.1 - 0.0 - Partly cloudy 10 - - - -
31/07:30am 17.5 ESE 16 22 1016.6 - 0.0 - Partly cloudy 10 - - - -
31/07:00am 16.9 ESE 18 23 1016.3 - 0.0 - Partly cloudy 10 - - - -
31/06:30am 16.7 ESE 16 20 1016.0 - 0.0 - Partly cloudy 10 - - - -
31/06:00am 17.0 ESE 17 22 1015.8 - 0.0 - Mostly cloudy 10 - - - -
31/05:30am 16.9 ESE 15 20 1015.8 - 0.0 - Cloudy 10 - - - -
31/05:00am 16.7 SE 17 24 1015.7 - 0.0 - Partly cloudy 10 - - - -
31/04:30am 16.7 SE 18 22 1015.6 - 0.0 - Partly cloudy 10 - - - -
31/04:00am 16.9 SE 17 22 1015.5 - 0.0 - Partly cloudy 10 - - - -
31/03:30am 16.8 SE 18 25 1015.6 - 0.0 - Partly cloudy 10 - - - -
31/03:00am 16.8 SE 17 19 1015.7 - 0.0 - Mostly cloudy 10 - - - -
31/02:30am 16.6 SE 15 20 1015.9 - 0.0 - Partly cloudy 10 - - - -
31/02:00am 17.0 SE 16 21 1016.0 - 0.0 - Cloudy 10 - - - -
31/01:30am 17.0 SE 15 20 1016.1 - 0.0 - Cloudy 10 - - - -
31/01:00am 17.0 SE 17 21 1016.1 - 0.0 - Partly cloudy 10 - - - -
31/12:30am 17.0 SE 17 22 1016.3 - 0.0 - Partly cloudy 10 - - - -
31/12:00am 17.1 SE 17 22 1016.3 - 0.0 - Mostly clear 10 - - - -
 
Date/Time
CDT
Temp

°C
Wind Pressure Rain
since 9am
mm
Weather Cloud Vis
km
Sea
Height
m
Swell
Dir
 
Speed
knots
Gust
knots
hPa Trend Height
m
Period
s
Dir
30/11:30pm 17.4 SE 16 21 1016.5 - 0.0 - Partly cloudy 10 - - - -
30/11:00pm 17.5 SE 16 21 1016.3 - 0.0 - - 10 - - - -
30/10:30pm 17.8 SE 16 20 1016.3 - 0.0 - - 10 - - - -
30/10:00pm 18.0 SSE 16 20 1016.2 - 0.0 - - 10 - - - -
30/09:30pm 17.9 SSE 17 21 1015.9 - 0.0 - - 10 - - - -
30/09:00pm 18.2 SSE 17 20 1016.1 - 0.0 - - 10 - - - -
30/08:30pm 18.7 SSE 15 19 1015.9 - 0.0 - - 10 - - - -
30/08:00pm 19.7 SSE 14 18 1015.6 - 0.0 - - 10 - - - -
30/07:30pm 20.8 SE 14 17 1015.5 - 0.0 - - 10 - - - -
30/07:00pm 21.7 SSE 13 16 1015.2 - 0.0 - - 10 - - - -
30/06:30pm 22.0 SE 15 18 1015.1 - 0.0 - - 10 - - - -
30/06:00pm 22.7 SE 14 18 1015.1 - 0.0 - - 10 - - - -
30/05:30pm 23.0 SE 15 18 1015.2 - 0.0 - - 10 - - - -
30/05:00pm 23.1 SE 15 18 1015.4 - 0.0 - - 10 - - - -
30/04:30pm 22.9 SSE 17 21 1015.4 - 0.0 - - 10 - - - -
30/04:00pm 23.2 SE 18 22 1015.3 - 0.0 - - 10 - - - -
30/03:30pm 23.6 SE 18 23 1015.4 - 0.0 - - 10 - - - -
30/03:00pm 23.2 SE 18 23 1015.6 - 0.0 - - 10 - - - -
30/02:30pm 23.4 SE 18 22 1015.7 - 0.0 - - 10 - - - -
30/02:00pm 23.3 SE 19 22 1016.1 - 0.0 - - 10 - - - -
30/01:30pm 23.7 SE 18 23 1016.4 - 0.0 - - 10 - - - -
30/01:00pm 22.3 SE 18 22 1016.5 - 0.0 - Partly cloudy 10 - - - -
30/12:30pm 23.5 SE 15 20 1016.9 - 0.0 - Partly cloudy 10 - - - -
30/12:00pm 22.6 ESE 15 20 1016.9 - 0.0 - Mostly clear 10 - - - -
30/11:30am 22.8 ESE 15 21 1016.9 - 0.0 - Partly cloudy 10 - - - -
30/11:00am 22.6 ESE 15 19 1017.0 - 0.0 - Partly cloudy 10 - - - -
30/10:30am 21.7 ESE 15 19 1017.0 - 0.0 - Partly cloudy 10 - - - -
30/10:00am 22.0 ESE 14 18 1017.0 - 0.0 - Partly cloudy 10 - - - -
30/09:30am 21.4 ESE 14 19 1017.1 - 0.0 - Partly cloudy 10 - - - -
30/09:00am 21.4 ESE 13 18 1017.1 - 0.0 - Mostly clear 10 - - - -
30/08:30am 20.8 ESE 13 16 1016.9 - 0.0 - Partly cloudy 10 - - - -
30/08:00am 19.7 ESE 12 15 1016.8 - 0.0 - Partly cloudy 10 - - - -
30/07:30am 18.4 ESE 9 10 1016.5 - 0.0 - Partly cloudy 10 - - - -
30/07:00am 17.1 ESE 8 9 1016.5 - 0.0 - Partly cloudy 10 - - - -
30/06:30am 16.7 ESE 8 10 1016.1 - 0.0 - Partly cloudy 10 - - - -
30/06:00am 16.8 ESE 9 11 1015.7 - 0.0 - - 10 - - - -
30/05:30am 16.4 ESE 9 10 1015.5 - 0.0 - - 10 - - - -
30/05:00am 17.0 ESE 8 10 1015.4 - 0.0 - Partly cloudy 10 - - - -
30/04:30am 16.9 SE 9 11 1015.5 - 0.0 - - 10 - - - -
30/04:00am 17.1 ESE 10 13 1015.5 - 0.0 - - 10 - - - -
30/03:30am 16.8 SE 8 10 1015.9 - 0.0 - - 10 - - - -

Other Formats:

Comma delimited format used in spreadsheet applications
http://www.bom.gov.au/fwo/IDS60701/IDS60701.95661.axf

JavaScript Object Notation format (JSON) in row-major order
http://www.bom.gov.au/fwo/IDS60701/IDS60701.95661.json